Time;durP1;ratioP1;P1;durP2;ratioP2;P2;SDS_P1;SDS_P2;PMS_P1;PMS_P2;Temp;Humidity;BMP_temperature;BMP_pressure;BME280_temperature;BME280_humidity;BME280_pressure;Samples;Min_cycle;Max_cycle;Signal;HPM_P1;HPM_P2
2023/09/09 00:03:50;;;;;;;14.27;12.15;;;13.00;99.90;;;;;;10209832;29;20254;-84
2023/09/09 00:08:53;;;;;;;18.90;11.82;;;13.00;99.90;;;;;;10209573;29;20302;-84
2023/09/09 00:13:56;;;;;;;17.58;11.90;;;12.90;99.90;;;;;;10209430;29;20298;-84
2023/09/09 00:18:58;;;;;;;14.25;11.55;;;12.80;99.90;;;;;;10207897;29;20301;-84
2023/09/09 00:24:01;;;;;;;15.68;11.45;;;12.80;99.90;;;;;;10209241;29;20344;-84
2023/09/09 00:29:04;;;;;;;22.48;12.35;;;12.70;99.90;;;;;;10208644;29;20314;-84
2023/09/09 00:34:07;;;;;;;15.30;12.18;;;12.70;99.90;;;;;;10203951;29;20294;-84
2023/09/09 00:39:09;;;;;;;16.90;11.32;;;12.60;99.90;;;;;;10208865;29;20238;-84
2023/09/09 00:44:12;;;;;;;14.82;11.15;;;12.60;99.90;;;;;;10191329;29;20306;-84
2023/09/09 00:49:14;;;;;;;15.85;11.27;;;12.50;99.90;;;;;;10190601;29;20242;-84
2023/09/09 00:54:17;;;;;;;13.48;12.07;;;12.50;99.90;;;;;;10208278;29;20668;-85
2023/09/09 00:59:20;;;;;;;14.18;12.02;;;12.50;99.90;;;;;;10190156;29;20215;-84
2023/09/09 01:04:22;;;;;;;14.88;12.73;;;12.40;99.90;;;;;;10207057;29;20250;-84
2023/09/09 01:09:25;;;;;;;21.40;12.75;;;12.40;99.90;;;;;;10190333;29;20692;-84
2023/09/09 01:14:27;;;;;;;14.02;12.50;;;12.50;99.90;;;;;;10189984;29;20298;-84
2023/09/09 01:19:31;;;;;;;13.65;12.25;;;12.40;99.90;;;;;;10206195;29;20246;-84
2023/09/09 01:24:34;;;;;;;15.65;12.32;;;12.30;99.90;;;;;;10206631;29;20612;-84
2023/09/09 01:29:37;;;;;;;16.67;13.05;;;12.30;99.90;;;;;;10190593;29;20250;-84
2023/09/09 01:34:39;;;;;;;15.77;13.27;;;12.30;99.90;;;;;;10204332;29;20270;-84
2023/09/09 01:39:44;;;;;;;17.45;11.65;;;12.30;99.90;;;;;;10173257;29;20246;-84
2023/09/09 01:44:47;;;;;;;19.98;11.88;;;12.30;99.90;;;;;;10188405;29;20802;-84
2023/09/09 01:49:49;;;;;;;14.85;13.10;;;12.10;99.90;;;;;;10188172;29;20274;-84
2023/09/09 01:54:52;;;;;;;15.23;13.63;;;12.20;99.90;;;;;;10188239;29;20278;-84
2023/09/09 01:59:56;;;;;;;17.80;12.73;;;12.20;99.90;;;;;;10205749;29;20297;-84
2023/09/09 02:04:58;;;;;;;17.20;12.85;;;12.10;99.90;;;;;;10187760;29;20254;-84
2023/09/09 02:10:01;;;;;;;19.67;13.18;;;12.10;99.90;;;;;;10189688;29;20242;-84
2023/09/09 02:15:04;;;;;;;16.23;13.57;;;12.10;99.90;;;;;;10209296;29;20266;-84
2023/09/09 02:20:08;;;;;;;15.00;12.98;;;12.10;99.90;;;;;;10195397;29;20278;-84
2023/09/09 02:25:10;;;;;;;16.48;13.35;;;12.00;99.90;;;;;;10195845;29;20278;-84
2023/09/09 02:30:13;;;;;;;16.75;12.82;;;12.00;99.90;;;;;;10195394;29;20214;-84
2023/09/09 02:35:16;;;;;;;20.48;14.25;;;12.10;99.90;;;;;;10212033;29;20263;-84
2023/09/09 02:40:18;;;;;;;16.70;13.77;;;12.00;99.90;;;;;;10194780;29;20751;-84
2023/09/09 02:45:21;;;;;;;16.38;13.48;;;12.00;99.90;;;;;;10194557;29;20313;-84
2023/09/09 02:50:24;;;;;;;18.80;14.10;;;12.00;99.90;;;;;;10194034;29;20250;-84
2023/09/09 02:55:27;;;;;;;18.05;14.40;;;12.00;99.90;;;;;;10193969;29;20266;-84
2023/09/09 03:00:30;;;;;;;23.92;15.25;;;12.00;99.90;;;;;;10194422;29;20760;-84
2023/09/09 03:05:36;;;;;;;24.20;16.40;;;11.90;99.90;;;;;;10193717;29;20250;-84
2023/09/09 03:10:39;;;;;;;22.95;16.35;;;11.90;99.90;;;;;;10209179;29;20239;-85
2023/09/09 03:15:41;;;;;;;19.05;14.40;;;11.90;99.90;;;;;;10193494;29;20322;-84
2023/09/09 03:20:44;;;;;;;15.90;14.25;;;11.90;99.90;;;;;;10193001;29;20290;-84
2023/09/09 03:25:46;;;;;;;18.13;14.25;;;11.90;99.90;;;;;;10192763;29;20655;-84
2023/09/09 03:30:59;;;;;;;16.23;14.05;;;11.70;99.90;;;;;;10181918;29;20283;-84
2023/09/09 03:36:04;;;;;;;17.03;14.33;;;11.70;99.90;;;;;;10153453;29;20267;-84
2023/09/09 03:41:07;;;;;;;18.00;15.20;;;11.70;99.90;;;;;;10170003;29;20248;-85
2023/09/09 03:46:11;;;;;;;18.23;13.97;;;11.60;99.90;;;;;;10185018;29;20668;-84
2023/09/09 03:51:14;;;;;;;16.13;14.43;;;11.60;99.90;;;;;;10192456;29;20211;-84
2023/09/09 03:56:17;;;;;;;21.23;14.67;;;11.70;99.90;;;;;;10208475;29;20271;-84
2023/09/09 04:01:19;;;;;;;17.70;14.33;;;11.70;99.90;;;;;;10208376;29;20266;-85
2023/09/09 04:06:23;;;;;;;18.33;14.13;;;11.60;99.90;;;;;;10208795;29;20313;-84
2023/09/09 04:11:27;;;;;;;16.90;15.10;;;11.60;99.90;;;;;;10190591;29;20310;-85
2023/09/09 04:16:30;;;;;;;18.23;15.77;;;11.50;99.90;;;;;;10191141;29;20672;-85
2023/09/09 04:21:33;;;;;;;17.50;14.63;;;11.60;99.90;;;;;;10191577;29;20247;-86
2023/09/09 04:26:35;;;;;;;20.25;16.98;;;11.60;99.90;;;;;;10208590;29;20309;-86
2023/09/09 04:31:38;;;;;;;18.53;15.90;;;11.60;99.90;;;;;;10190160;29;20349;-86
2023/09/09 04:36:42;;;;;;;18.30;15.20;;;11.50;99.90;;;;;;10194184;29;20679;-86
2023/09/09 04:41:45;;;;;;;20.92;15.80;;;11.50;99.90;;;;;;10151168;29;20314;-86
2023/09/09 04:46:48;;;;;;;23.67;16.87;;;11.60;99.90;;;;;;10165441;29;20779;-86
2023/09/09 04:51:51;;;;;;;16.92;15.13;;;11.60;99.90;;;;;;10208081;29;20658;-86
2023/09/09 04:56:54;;;;;;;23.70;14.17;;;11.60;99.90;;;;;;10207541;29;20274;-86
2023/09/09 05:01:57;;;;;;;19.83;14.63;;;11.70;99.90;;;;;;10175796;29;20247;-86
2023/09/09 05:07:01;;;;;;;20.70;15.03;;;11.70;99.90;;;;;;10168140;29;20311;-86
2023/09/09 05:12:05;;;;;;;18.80;14.35;;;11.80;99.90;;;;;;10150712;29;20389;-85
2023/09/09 05:17:08;;;;;;;17.52;14.27;;;11.90;99.90;;;;;;10151078;29;20266;-86
2023/09/09 05:22:11;;;;;;;23.38;15.18;;;12.00;99.90;;;;;;10182631;29;20254;-86
2023/09/09 05:27:13;;;;;;;22.20;16.23;;;12.20;99.90;;;;;;10189489;29;20238;-86
2023/09/09 05:32:16;;;;;;;22.33;16.52;;;12.30;99.90;;;;;;10189835;29;20306;-85
2023/09/09 05:37:19;;;;;;;22.05;17.83;;;12.50;99.90;;;;;;10189131;29;20325;-86
2023/09/09 05:42:22;;;;;;;21.88;17.83;;;12.80;99.90;;;;;;10188894;29;20227;-85
2023/09/09 05:47:26;;;;;;;32.22;19.50;;;13.00;99.90;;;;;;10211759;29;20238;-86
2023/09/09 05:52:29;;;;;;;29.40;19.23;;;13.30;99.90;;;;;;10197273;29;20333;-85
2023/09/09 05:57:32;;;;;;;28.73;20.50;;;13.50;99.90;;;;;;10196218;29;20732;-86
2023/09/09 06:02:35;;;;;;;26.90;20.38;;;13.70;99.90;;;;;;10214091;29;20234;-86
2023/09/09 06:07:38;;;;;;;26.20;21.05;;;14.00;99.90;;;;;;10196431;29;20258;-86
2023/09/09 06:12:45;;;;;;;32.78;22.83;;;14.20;99.90;;;;;;10180832;29;20306;-86
2023/09/09 06:17:49;;;;;;;31.83;23.30;;;14.50;99.90;;;;;;10212576;29;20709;-86
2023/09/09 06:22:52;;;;;;;30.27;23.65;;;14.80;99.90;;;;;;10191484;29;20306;-86
2023/09/09 06:27:55;;;;;;;27.33;23.35;;;15.00;99.90;;;;;;10194740;29;20677;-85
2023/09/09 06:32:59;;;;;;;26.38;22.10;;;15.30;99.90;;;;;;10212133;29;20246;-85
2023/09/09 06:38:03;;;;;;;26.23;21.98;;;15.50;99.90;;;;;;10195158;29;20741;-85
2023/09/09 06:43:05;;;;;;;26.40;22.25;;;16.00;99.90;;;;;;10211706;29;20207;-85
2023/09/09 06:48:08;;;;;;;22.55;18.00;;;16.00;99.90;;;;;;10195050;29;20294;-85
2023/09/09 06:53:11;;;;;;;29.13;21.35;;;16.20;99.90;;;;;;10211316;29;20688;-86
2023/09/09 06:58:14;;;;;;;25.15;20.33;;;16.40;99.90;;;;;;10192825;29;20262;-86
2023/09/09 07:03:20;;;;;;;29.13;21.63;;;16.60;99.90;;;;;;10194591;29;20238;-85
2023/09/09 07:08:23;;;;;;;31.88;21.50;;;16.80;99.90;;;;;;10194413;29;20306;-86
2023/09/09 07:13:26;;;;;;;25.55;21.60;;;17.00;99.90;;;;;;10211537;29;20346;-85
2023/09/09 07:18:28;;;;;;;26.77;21.30;;;17.20;99.90;;;;;;10199170;29;20275;-85
2023/09/09 07:23:31;;;;;;;22.95;17.75;;;17.50;99.90;;;;;;10171420;29;20701;-85
2023/09/09 07:28:33;;;;;;;24.83;17.60;;;17.80;99.90;;;;;;10206046;29;20234;-85
2023/09/09 07:33:36;;;;;;;44.92;19.92;;;18.10;99.90;;;;;;10180983;29;20243;-85
2023/09/09 07:38:39;;;;;;;24.60;15.32;;;18.40;99.90;;;;;;10210656;29;20321;-85
2023/09/09 07:43:42;;;;;;;21.38;15.75;;;18.70;99.90;;;;;;10210608;29;20324;-85
2023/09/09 07:48:45;;;;;;;16.05;12.65;;;19.10;99.90;;;;;;10210191;29;20784;-84
2023/09/09 07:53:47;;;;;;;16.75;13.57;;;19.40;99.90;;;;;;10207921;29;20250;-85
2023/09/09 07:58:50;;;;;;;14.90;12.55;;;19.70;99.90;;;;;;10209361;29;20274;-85
2023/09/09 08:03:53;;;;;;;14.85;12.45;;;20.00;99.90;;;;;;10207487;29;20243;-85
2023/09/09 08:08:55;;;;;;;13.45;12.05;;;20.40;99.90;;;;;;10209023;29;20278;-84
2023/09/09 08:13:58;;;;;;;13.15;11.85;;;20.70;99.90;;;;;;10209397;29;20648;-85
2023/09/09 08:19:00;;;;;;;16.85;10.82;;;21.00;99.90;;;;;;10208773;29;20324;-85
2023/09/09 08:24:03;;;;;;;13.57;12.23;;;21.40;99.90;;;;;;10209092;29;20298;-85
2023/09/09 08:29:06;;;;;;;11.90;10.65;;;21.70;99.90;;;;;;10208585;29;20242;-85
2023/09/09 08:34:09;;;;;;;12.07;10.20;;;22.00;99.90;;;;;;10206324;29;20250;-85
2023/09/09 08:39:12;;;;;;;13.32;10.95;;;;;;;;;;10204105;29;20258;-85
2023/09/09 08:44:43;;;;;;;11.10;10.07;;;22.50;99.90;;;;;;10206848;29;20759;-85
2023/09/09 08:49:50;;;;;;;8.60;7.70;;;22.70;99.40;;;;;;10204371;29;20254;-85
2023/09/09 08:54:53;;;;;;;11.48;10.38;;;22.90;98.40;;;;;;10206982;29;20271;-85
2023/09/09 08:59:57;;;;;;;14.93;11.85;;;23.10;97.00;;;;;;10207418;29;20238;-84
2023/09/09 09:05:02;;;;;;;12.13;10.93;;;23.30;95.40;;;;;;10205887;29;20704;-84
2023/09/09 09:10:05;;;;;;;12.63;10.45;;;23.40;96.00;;;;;;10203031;29;20267;-84
2023/09/09 09:15:10;;;;;;;11.10;9.98;;;23.60;96.10;;;;;;10199741;29;20243;-84
2023/09/09 09:20:30;;;;;;;13.35;9.82;;;23.80;95.70;;;;;;10203875;28;20274;-85
2023/09/09 09:25:42;;;;;;;12.07;10.40;;;23.90;99.90;;;;;;10205892;29;20759;-84
2023/09/09 09:30:45;;;;;;;13.30;10.23;;;24.10;94.70;;;;;;10188934;29;20294;-85
2023/09/09 09:35:48;;;;;;;14.80;10.13;;;24.20;91.90;;;;;;10188079;28;20338;-84
2023/09/09 09:40:59;;;;;;;9.75;8.82;;;24.30;91.80;;;;;;10206552;29;20234;-84
2023/09/09 09:46:19;;;;;;;12.23;10.52;;;24.40;94.20;;;;;;10189548;29;20292;-84
2023/09/09 09:51:21;;;;;;;12.77;11.48;;;24.50;97.40;;;;;;10205592;29;20322;-84
2023/09/09 09:56:24;;;;;;;12.82;9.98;;;24.60;99.90;;;;;;10188783;29;20726;-84
2023/09/09 10:01:27;;;;;;;10.88;8.57;;;24.70;99.90;;;;;;10189421;29;20266;-85
2023/09/09 10:06:33;;;;;;;11.07;9.73;;;24.90;99.90;;;;;;10205385;29;20681;-84
2023/09/09 10:11:43;;;;;;;13.63;12.23;;;25.00;99.90;;;;;;10205194;29;20302;-84
2023/09/09 10:16:48;;;;;;;12.38;8.30;;;24.90;99.90;;;;;;10211831;29;20333;-84
2023/09/09 10:21:51;;;;;;;12.85;9.30;;;25.00;99.90;;;;;;10203586;29;20246;-84
2023/09/09 10:26:56;;;;;;;12.15;8.05;;;25.10;99.90;;;;;;10196608;28;20310;-84
2023/09/09 10:32:04;;;;;;;11.40;8.75;;;25.20;99.90;;;;;;10205421;29;20613;-83
2023/09/09 10:37:09;;;;;;;7.43;6.70;;;25.30;99.90;;;;;;10211568;29;20262;-83
2023/09/09 10:42:12;;;;;;;8.70;7.93;;;25.40;99.90;;;;;;10211107;29;20267;-84
2023/09/09 10:47:15;;;;;;;11.80;7.70;;;25.50;99.90;;;;;;10211968;29;20289;-84
2023/09/09 10:52:32;;;;;;;14.02;9.25;;;25.60;99.90;;;;;;10192877;29;20254;-84
2023/09/09 10:57:34;;;;;;;14.82;8.82;;;25.60;99.90;;;;;;10181655;29;20329;-84
2023/09/09 11:02:46;;;;;;;12.23;9.13;;;25.70;99.90;;;;;;10190226;29;20242;-84
2023/09/09 11:07:49;;;;;;;10.13;8.63;;;25.90;99.90;;;;;;10210336;29;20246;-84
2023/09/09 11:12:58;;;;;;;12.55;9.18;;;25.90;99.90;;;;;;10193741;29;20305;-86
2023/09/09 11:18:03;;;;;;;13.77;9.43;;;26.00;99.90;;;;;;10195639;29;20290;-84
2023/09/09 11:23:07;;;;;;;11.50;9.30;;;26.10;99.90;;;;;;10209951;29;20646;-84
2023/09/09 11:28:11;;;;;;;13.60;11.85;;;26.00;99.90;;;;;;10211325;29;20242;-85
2023/09/09 11:33:23;;;;;;;11.30;8.93;;;26.00;99.90;;;;;;10210771;29;20239;-84
2023/09/09 11:38:26;;;;;;;12.38;9.73;;;26.00;99.90;;;;;;10194052;29;20250;-84
2023/09/09 11:43:28;;;;;;;11.73;10.50;;;26.00;99.90;;;;;;9854285;29;10000360;-84
2023/09/09 11:48:31;;;;;;;11.50;10.25;;;26.00;99.90;;;;;;10197369;29;20306;-83
2023/09/09 11:53:34;;;;;;;10.95;9.35;;;26.00;99.90;;;;;;10205794;29;20250;-83
2023/09/09 11:58:39;;;;;;;21.15;13.70;;;26.10;99.90;;;;;;10217510;29;20341;-84
2023/09/09 12:03:42;;;;;;;10.25;9.02;;;26.10;99.90;;;;;;10203652;29;20235;-86
2023/09/09 12:08:46;;;;;;;11.63;9.00;;;26.10;99.90;;;;;;10208660;29;20250;-86
2023/09/09 12:13:49;;;;;;;9.48;8.57;;;26.20;99.90;;;;;;10206524;29;20250;-86
2023/09/09 12:18:54;;;;;;;13.68;12.32;;;26.20;99.90;;;;;;10205648;29;20318;-86
2023/09/09 12:24:00;;;;;;;10.80;9.73;;;26.20;99.90;;;;;;10188797;29;20239;-86
2023/09/09 12:29:11;;;;;;;10.38;8.60;;;26.30;99.90;;;;;;10172932;29;20250;-86
2023/09/09 12:34:20;;;;;;;9.80;8.25;;;26.40;99.90;;;;;;10205212;29;20246;-86
2023/09/09 12:39:30;;;;;;;12.27;8.70;;;26.40;99.90;;;;;;10205166;29;20262;-86
2023/09/09 12:44:52;;;;;;;11.85;9.70;;;26.40;99.90;;;;;;10205039;29;20648;-86
2023/09/09 12:49:54;;;;;;;14.35;11.77;;;26.30;99.90;;;;;;10187990;29;20297;-86
2023/09/09 12:54:57;;;;;;;9.05;8.20;;;26.30;99.90;;;;;;10172196;29;20286;-87
2023/09/09 13:00:00;;;;;;;11.48;8.13;;;26.20;99.90;;;;;;10204061;29;20270;-86
2023/09/09 13:05:02;;;;;;;8.18;6.70;;;26.30;99.90;;;;;;10204658;29;20293;-86
2023/09/09 13:10:05;;;;;;;8.13;7.30;;;26.40;99.90;;;;;;10204352;29;20295;-86
2023/09/09 13:15:08;;;;;;;12.20;7.25;;;26.40;99.90;;;;;;10204484;29;20630;-86
2023/09/09 13:20:11;;;;;;;8.48;7.57;;;26.40;99.90;;;;;;10186398;29;20676;-86
2023/09/09 13:25:13;;;;;;;7.97;7.18;;;26.40;99.90;;;;;;10186098;29;20271;-87
2023/09/09 13:30:16;;;;;;;12.40;8.45;;;26.40;99.90;;;;;;10203794;29;20301;-86
2023/09/09 13:35:19;;;;;;;9.27;8.38;;;26.40;99.90;;;;;;10205038;29;20254;-87
2023/09/09 13:40:21;;;;;;;12.30;10.45;;;26.50;99.90;;;;;;10203335;29;20314;-86
2023/09/09 13:45:24;;;;;;;8.65;7.78;;;26.40;99.90;;;;;;10161746;29;20306;-86
2023/09/09 13:50:27;;;;;;;10.57;9.48;;;26.50;99.90;;;;;;10162875;29;20255;-86
2023/09/09 13:55:30;;;;;;;11.48;8.88;;;26.50;99.90;;;;;;10146468;29;20934;-87
2023/09/09 14:00:33;;;;;;;8.02;7.20;;;26.50;99.90;;;;;;10163854;29;20322;-87
2023/09/09 14:05:35;;;;;;;12.23;10.77;;;26.50;99.90;;;;;;10165261;29;20661;-87
2023/09/09 14:10:38;;;;;;;11.25;9.95;;;26.50;99.90;;;;;;10154928;29;20250;-87
2023/09/09 14:15:41;;;;;;;20.58;7.60;;;26.50;99.90;;;;;;10180581;29;20243;-82
2023/09/09 14:20:44;;;;;;;18.13;9.38;;;26.40;99.90;;;;;;10206911;29;20329;-83
2023/09/09 14:25:48;;;;;;;19.95;11.07;;;26.40;99.90;;;;;;10157628;29;20295;-85
2023/09/09 14:30:50;;;;;;;14.23;10.57;;;26.40;99.90;;;;;;10191005;29;20243;-85
2023/09/09 14:35:53;;;;;;;27.02;12.18;;;26.30;99.90;;;;;;10212601;29;20250;-85
2023/09/09 14:40:55;;;;;;;14.88;10.77;;;26.30;99.90;;;;;;10212196;29;20326;-84
2023/09/09 14:45:58;;;;;;;12.02;10.02;;;26.30;99.90;;;;;;10211842;29;20259;-85
2023/09/09 14:51:01;;;;;;;23.48;14.75;;;26.30;99.90;;;;;;10211876;29;20778;-84
2023/09/09 14:56:04;;;;;;;20.45;14.40;;;26.30;99.90;;;;;;10211825;29;20291;-84
2023/09/09 15:01:06;;;;;;;27.67;15.77;;;26.40;99.90;;;;;;10211354;29;20317;-84
2023/09/09 15:06:09;;;;;;;29.52;15.80;;;26.40;99.90;;;;;;10211767;29;20238;-84
2023/09/09 15:11:11;;;;;;;19.73;11.35;;;26.40;99.90;;;;;;10210920;29;20238;-84
2023/09/09 15:16:14;;;;;;;25.17;14.65;;;26.50;99.90;;;;;;10194591;29;20258;-85
2023/09/09 15:21:17;;;;;;;27.10;15.43;;;26.40;99.90;;;;;;10209319;29;20708;-85
2023/09/09 15:26:19;;;;;;;34.78;17.40;;;26.40;99.90;;;;;;10210780;29;20243;-85
2023/09/09 15:31:22;;;;;;;30.25;16.55;;;26.30;99.90;;;;;;10210652;29;20239;-84
2023/09/09 15:36:24;;;;;;;15.18;11.40;;;26.20;99.90;;;;;;10207169;29;20317;-84
2023/09/09 15:41:27;;;;;;;27.98;15.00;;;26.20;99.90;;;;;;10194466;29;20290;-84
2023/09/09 15:46:29;;;;;;;23.65;15.75;;;26.10;99.90;;;;;;10209140;29;20285;-85
2023/09/09 15:51:32;;;;;;;25.17;14.65;;;26.00;99.90;;;;;;10209509;29;20243;-85
2023/09/09 15:56:35;;;;;;;22.98;14.68;;;25.90;99.90;;;;;;10207194;29;20262;-84
2023/09/09 16:01:38;;;;;;;21.88;13.57;;;25.90;99.90;;;;;;10208653;29;20242;-84
2023/09/09 16:06:40;;;;;;;15.80;12.82;;;25.70;99.90;;;;;;10192227;29;20305;-84
2023/09/09 16:11:43;;;;;;;20.63;12.98;;;25.60;99.90;;;;;;10209410;29;20251;-84
2023/09/09 16:16:45;;;;;;;21.35;14.45;;;25.50;99.90;;;;;;10208398;29;20656;-85
2023/09/09 16:21:48;;;;;;;16.83;11.30;;;25.40;99.90;;;;;;10204275;29;20247;-85
2023/09/09 16:26:51;;;;;;;15.48;13.45;;;25.10;99.90;;;;;;10191411;29;20250;-85
2023/09/09 16:31:53;;;;;;;19.85;13.73;;;24.90;99.90;;;;;;10205258;29;20743;-85
2023/09/09 16:36:56;;;;;;;12.45;11.20;;;24.70;99.90;;;;;;10190382;29;20338;-84
2023/09/09 16:42:01;;;;;;;15.50;12.02;;;24.50;99.90;;;;;;10207593;29;20266;-84
2023/09/09 16:47:05;;;;;;;24.63;11.48;;;24.20;99.90;;;;;;10240955;29;20241;-83
2023/09/09 16:52:08;;;;;;;23.05;10.70;;;24.00;99.90;;;;;;10242987;28;20763;-84
2023/09/09 16:57:11;;;;;;;11.00;9.63;;;23.70;99.90;;;;;;10206690;29;20262;-83
2023/09/09 17:02:13;;;;;;;11.40;9.70;;;23.50;99.90;;;;;;10191159;29;20239;-83
2023/09/09 17:07:16;;;;;;;13.23;10.13;;;23.20;99.90;;;;;;10190604;29;20313;-83
2023/09/09 17:12:19;;;;;;;15.52;9.73;;;22.80;99.90;;;;;;10206791;29;20238;-83
2023/09/09 17:17:21;;;;;;;15.13;10.43;;;22.40;99.90;;;;;;10207343;29;20266;-83
2023/09/09 17:22:24;;;;;;;11.50;9.98;;;21.90;99.90;;;;;;10207448;29;20262;-83
2023/09/09 17:27:27;;;;;;;30.77;12.40;;;21.60;99.90;;;;;;10190350;29;20254;-83
2023/09/09 17:32:29;;;;;;;30.98;12.68;;;21.50;99.90;;;;;;10206739;29;20246;-83
2023/09/09 17:37:32;;;;;;;18.45;10.77;;;21.30;99.90;;;;;;10207103;29;20262;-82
2023/09/09 17:42:34;;;;;;;19.23;10.68;;;21.30;99.90;;;;;;10205313;29;20230;-83
2023/09/09 17:47:37;;;;;;;15.75;12.23;;;21.20;99.90;;;;;;10207219;29;20242;-82
2023/09/09 17:52:41;;;;;;;16.17;12.13;;;21.10;99.90;;;;;;10178194;29;20251;-84
2023/09/09 17:57:44;;;;;;;21.25;12.60;;;20.90;99.90;;;;;;10203555;29;20326;-83
2023/09/09 18:02:47;;;;;;;18.77;12.43;;;20.70;99.90;;;;;;10205052;29;20242;-83
2023/09/09 18:07:50;;;;;;;18.67;12.77;;;20.50;99.90;;;;;;10189506;29;20246;-82
2023/09/09 18:12:53;;;;;;;23.38;12.70;;;20.30;99.90;;;;;;10206449;29;20308;-83
2023/09/09 18:17:55;;;;;;;19.02;12.15;;;20.20;99.90;;;;;;10204549;29;20266;-83
2023/09/09 18:22:58;;;;;;;24.90;12.77;;;20.00;99.90;;;;;;10206709;29;20246;-83
2023/09/09 18:28:01;;;;;;;24.25;13.93;;;19.90;99.90;;;;;;10206738;29;20211;-82
2023/09/09 18:33:03;;;;;;;23.23;12.68;;;19.70;99.90;;;;;;10206189;29;20246;-83
2023/09/09 18:38:09;;;;;;;31.90;13.75;;;19.70;99.90;;;;;;10186509;29;20262;-83
2023/09/09 18:43:12;;;;;;;16.77;13.15;;;19.50;99.90;;;;;;10205519;29;20305;-83
2023/09/09 18:48:16;;;;;;;24.05;13.18;;;19.40;99.90;;;;;;10205310;29;20278;-83
2023/09/09 18:53:19;;;;;;;25.63;13.50;;;19.20;99.90;;;;;;10189851;29;20641;-83
2023/09/09 18:58:22;;;;;;;21.42;13.73;;;19.10;99.90;;;;;;10192064;29;20274;-83
2023/09/09 19:03:25;;;;;;;25.27;13.73;;;19.00;99.90;;;;;;10198740;29;20789;-82
2023/09/09 19:08:28;;;;;;;32.83;15.07;;;19.00;99.90;;;;;;10168919;29;20310;-82
2023/09/09 19:13:31;;;;;;;23.48;13.30;;;18.80;99.90;;;;;;10202480;29;20247;-82
2023/09/09 19:18:33;;;;;;;16.75;12.02;;;18.70;99.90;;;;;;10208168;29;20735;-82
2023/09/09 19:23:36;;;;;;;23.17;13.95;;;18.70;99.90;;;;;;10190359;29;20247;-82
2023/09/09 19:28:38;;;;;;;24.15;15.88;;;18.70;99.90;;;;;;10207440;29;20267;-82
2023/09/09 19:33:41;;;;;;;24.08;15.95;;;18.50;99.90;;;;;;10206254;29;21000;-82
2023/09/09 19:38:44;;;;;;;35.35;14.98;;;18.30;99.90;;;;;;10190980;29;20266;-82
2023/09/09 19:43:47;;;;;;;14.30;10.90;;;18.40;99.90;;;;;;10208852;29;20289;-82
2023/09/09 19:48:49;;;;;;;23.83;14.32;;;18.50;99.90;;;;;;10207109;29;20614;-82
2023/09/09 19:53:52;;;;;;;18.13;13.23;;;18.50;99.90;;;;;;10205680;29;20250;-82
2023/09/09 19:58:55;;;;;;;16.33;12.77;;;18.40;99.90;;;;;;9840871;29;9999890;-83
2023/09/09 20:03:58;;;;;;;20.00;13.63;;;18.30;99.90;;;;;;10185227;29;20246;-83
2023/09/09 20:09:00;;;;;;;14.85;12.05;;;18.30;99.90;;;;;;10205645;29;20681;-83
2023/09/09 20:14:03;;;;;;;19.60;14.90;;;18.30;99.90;;;;;;10207298;29;20242;-82
2023/09/09 20:19:06;;;;;;;25.42;16.52;;;18.20;99.90;;;;;;10206502;29;20294;-82
2023/09/09 20:24:09;;;;;;;17.33;14.43;;;17.90;99.90;;;;;;10206745;29;20704;-82
2023/09/09 20:29:11;;;;;;;21.63;14.23;;;17.90;99.90;;;;;;10202607;29;20243;-82
2023/09/09 20:34:15;;;;;;;19.25;15.02;;;17.90;99.90;;;;;;10203669;29;20215;-82
2023/09/09 20:39:17;;;;;;;14.60;11.38;;;17.90;99.90;;;;;;10188047;29;20300;-82
2023/09/09 20:44:20;;;;;;;16.35;14.60;;;17.90;99.90;;;;;;10205383;29;20271;-82
2023/09/09 20:49:22;;;;;;;12.30;10.57;;;17.90;99.90;;;;;;10204924;29;20242;-82
2023/09/09 20:54:25;;;;;;;18.58;15.25;;;17.90;99.90;;;;;;10188101;29;20750;-82
2023/09/09 20:59:28;;;;;;;26.63;14.68;;;17.90;99.90;;;;;;10203733;29;20321;-83
2023/09/09 21:04:30;;;;;;;17.77;14.52;;;17.60;99.90;;;;;;10186651;29;20286;-83
2023/09/09 21:09:33;;;;;;;18.42;15.07;;;17.60;99.90;;;;;;10206453;29;20254;-83
2023/09/09 21:14:35;;;;;;;18.60;13.32;;;17.40;99.90;;;;;;10179709;29;20238;-83
2023/09/09 21:19:38;;;;;;;16.60;13.90;;;17.50;99.90;;;;;;10191461;29;20322;-83
2023/09/09 21:24:43;;;;;;;18.33;13.23;;;17.50;99.90;;;;;;10193331;29;20297;-83
2023/09/09 21:29:46;;;;;;;18.67;14.90;;;17.30;99.90;;;;;;10190502;29;20295;-82
2023/09/09 21:34:50;;;;;;;17.25;15.20;;;17.20;99.90;;;;;;10167809;29;20250;-82
2023/09/09 21:39:53;;;;;;;16.70;11.82;;;17.10;99.90;;;;;;10187841;29;20672;-82
2023/09/09 21:44:56;;;;;;;15.73;14.02;;;17.10;99.90;;;;;;10186117;29;20234;-82
2023/09/09 21:49:58;;;;;;;17.77;13.70;;;17.20;99.90;;;;;;10186510;29;20301;-82
2023/09/09 21:55:01;;;;;;;15.10;13.32;;;17.10;99.90;;;;;;10202774;29;20266;-82
2023/09/09 22:00:18;;;;;;;17.88;15.23;;;16.90;99.90;;;;;;10169371;29;20303;-82
2023/09/09 22:05:21;;;;;;;16.25;14.13;;;16.80;99.90;;;;;;10180682;29;20242;-82
2023/09/09 22:10:23;;;;;;;18.02;14.55;;;16.70;99.90;;;;;;10201637;29;20239;-82
2023/09/09 22:15:26;;;;;;;17.42;12.65;;;16.70;99.90;;;;;;10194685;29;20628;-83
2023/09/09 22:20:28;;;;;;;20.38;14.93;;;16.80;99.90;;;;;;10186605;29;20274;-82
2023/09/09 22:25:31;;;;;;;17.80;13.73;;;16.60;99.90;;;;;;10202901;29;20239;-83
2023/09/09 22:30:33;;;;;;;21.05;16.75;;;16.60;99.90;;;;;;10192985;29;20239;-82
2023/09/09 22:35:36;;;;;;;20.20;14.75;;;16.40;99.90;;;;;;10202645;29;20250;-83
2023/09/09 22:40:38;;;;;;;22.55;14.65;;;16.30;99.90;;;;;;10249869;29;20257;-82
2023/09/09 22:45:41;;;;;;;17.52;14.40;;;16.30;99.90;;;;;;10249270;29;20257;-82
2023/09/09 22:50:44;;;;;;;25.30;16.48;;;16.30;99.90;;;;;;10193861;29;20239;-82
2023/09/09 22:55:46;;;;;;;19.80;15.05;;;16.10;99.90;;;;;;10209700;29;20262;-83
2023/09/09 23:00:48;;;;;;;27.98;17.65;;;16.00;99.90;;;;;;10192893;29;20287;-83
2023/09/09 23:05:52;;;;;;;15.48;12.68;;;15.90;99.90;;;;;;10208121;29;20752;-83
2023/09/09 23:10:54;;;;;;;24.67;17.20;;;16.00;99.90;;;;;;10207873;29;20250;-83
2023/09/09 23:15:57;;;;;;;23.42;17.25;;;15.90;99.90;;;;;;10208877;29;20696;-83
2023/09/09 23:20:59;;;;;;;17.40;14.43;;;15.70;99.90;;;;;;10207915;29;20324;-83
2023/09/09 23:26:02;;;;;;;15.55;13.38;;;15.90;99.90;;;;;;10193146;29;20238;-83
2023/09/09 23:31:05;;;;;;;19.70;15.65;;;15.90;99.90;;;;;;10208978;29;20310;-83
2023/09/09 23:36:08;;;;;;;14.68;13.18;;;15.60;99.90;;;;;;10207848;29;20243;-82
2023/09/09 23:41:10;;;;;;;21.48;15.50;;;15.70;99.90;;;;;;10189663;29;20727;-82
2023/09/09 23:46:13;;;;;;;19.48;17.42;;;15.60;99.90;;;;;;10190311;29;20242;-82
2023/09/09 23:51:16;;;;;;;16.15;14.25;;;15.50;99.90;;;;;;10189742;29;20246;-81
2023/09/09 23:56:19;;;;;;;20.77;17.27;;;15.60;99.90;;;;;;9863422;29;10000484;-83
